Time;durP1;ratioP1;P1;durP2;ratioP2;P2;SDS_P1;SDS_P2;PMS_P1;PMS_P2;Temp;Humidity;BMP_temperature;BMP_pressure;BME280_temperature;BME280_humidity;BME280_pressure;Samples;Min_cycle;Max_cycle;Signal;HPM_P1;HPM_P2
2023/10/11 04:30:32;;;;;;;9.10;7.80;;;;;;;11.01;100.00;99843.84;4883712;29;20189;-86
2023/10/11 04:33:45;;;;;;;9.27;8.47;;;;;;;10.96;100.00;99841.78;4903567;29;20226;-85
2023/10/11 04:37:27;;;;;;;9.70;8.80;;;;;;;10.89;100.00;99841.03;4872431;29;20233;-86
2023/10/11 04:41:02;;;;;;;9.27;8.30;;;;;;;10.81;100.00;99835.09;4902522;29;20191;-85
2023/10/11 04:44:47;;;;;;;9.93;9.00;;;;;;;10.77;100.00;99832.03;4922209;29;20208;-85
2023/10/11 04:48:36;;;;;;;11.03;10.00;;;;;;;10.72;100.00;99831.88;4921111;29;20212;-85
2023/10/11 04:52:36;;;;;;;10.83;8.83;;;;;;;10.69;100.00;99834.97;4921576;29;20203;-85
2023/10/11 05:00:11;;;;;;;9.83;8.87;;;;;;;10.58;100.00;99836.47;4899235;29;20251;-85
2023/10/11 05:03:42;;;;;;;10.27;9.37;;;;;;;10.53;100.00;99844.34;4887367;29;20217;-86
2023/10/11 05:07:25;;;;;;;10.03;9.23;;;;;;;10.48;100.00;99844.16;4876194;29;20185;-85
2023/10/11 05:13:36;;;;;;;11.20;10.10;;;;;;;10.60;100.00;99855.81;4883206;29;20205;-86
2023/10/11 05:16:50;;;;;;;11.10;9.83;;;;;;;10.70;100.00;99862.56;4857606;29;20206;-85
2023/10/11 05:21:02;;;;;;;11.17;9.97;;;;;;;10.76;100.00;99851.84;4866457;29;20221;-86
2023/10/11 05:27:51;;;;;;;10.63;9.53;;;;;;;10.81;100.00;99870.78;4875109;29;20201;-86
2023/10/11 05:31:19;;;;;;;9.67;8.50;;;;;;;10.87;100.00;99874.47;4897177;29;20241;-85
2023/10/11 05:36:49;;;;;;;9.97;9.10;;;;;;;10.93;100.00;99879.75;4903520;29;20193;-85
2023/10/11 06:12:26;;;;;;;8.60;7.90;;;;;;;11.86;100.00;99883.38;5089057;23;20240;-86
2023/10/11 06:15:19;;;;;;;12.17;7.30;;;;;;;11.95;100.00;99888.44;4927726;29;20212;-84
2023/10/11 06:21:59;;;;;;;12.20;7.50;;;;;;;12.19;100.00;99892.94;4923844;29;20227;-85
2023/10/11 06:24:38;;;;;;;8.40;7.33;;;;;;;12.32;100.00;99882.03;4941546;29;20184;-84
2023/10/11 06:32:11;;;;;;;13.67;7.17;;;;;;;12.61;100.00;99897.41;4941110;29;20192;-84
2023/10/11 07:28:05;;;;;;;8.70;7.90;;;;;;;15.21;100.00;99882.38;5223446;23;20599;-85
2023/10/11 07:30:38;;;;;;;8.37;7.67;;;;;;;15.23;100.00;99884.84;4903752;29;20206;-85
2023/10/11 07:33:06;;;;;;;9.00;7.73;;;;;;;15.33;100.00;99893.13;4918524;29;20201;-85
2023/10/11 07:35:34;;;;;;;9.00;8.10;;;;;;;15.41;100.00;99892.72;4897103;29;20210;-87
2023/10/11 07:38:15;;;;;;;7.87;7.17;;;;;;;15.54;100.00;99889.72;4897571;29;20226;-87
2023/10/11 07:40:46;;;;;;;7.70;7.00;;;;;;;15.75;100.00;99894.41;4901111;29;20213;-87
2023/10/11 07:43:16;;;;;;;7.40;6.80;;;;;;;15.86;100.00;99881.88;4887817;29;20209;-89
2023/10/11 07:45:48;;;;;;;7.70;7.10;;;;;;;16.03;100.00;99884.53;4882685;29;20269;-90
2023/10/11 07:48:20;;;;;;;8.13;7.33;;;;;;;16.11;100.00;99884.91;4913594;29;20230;-89
2023/10/11 07:50:51;;;;;;;8.37;7.50;;;;;;;16.22;100.00;99880.47;4933912;29;20209;-89
2023/10/11 07:53:25;;;;;;;8.37;7.63;;;;;;;16.40;100.00;99887.44;4908256;29;20231;-88
2023/10/11 07:55:58;;;;;;;8.57;7.83;;;;;;;16.47;100.00;99878.06;4888472;29;20203;-89
2023/10/11 07:58:32;;;;;;;8.80;7.70;;;;;;;16.72;100.00;99874.88;4899175;29;20321;-88
2023/10/11 08:01:15;;;;;;;9.40;7.70;;;;;;;17.03;100.00;99876.84;4890201;29;20206;-89
2023/10/11 08:03:47;;;;;;;8.10;7.40;;;;;;;17.17;100.00;99883.47;4891180;29;20217;-88
2023/10/11 08:06:23;;;;;;;8.73;7.93;;;;;;;17.25;100.00;99868.66;4916993;29;20301;-90
2023/10/11 08:08:59;;;;;;;8.80;8.00;;;;;;;17.37;100.00;99877.44;4915206;29;20232;-89
2023/10/11 08:11:36;;;;;;;9.07;8.27;;;;;;;17.42;100.00;99871.25;4900327;29;20207;-89
2023/10/11 08:14:14;;;;;;;7.63;7.03;;;;;;;17.50;100.00;99873.47;4917356;29;20961;-88
2023/10/11 08:16:42;;;;;;;8.47;7.77;;;;;;;17.45;100.00;99873.44;4905878;29;20205;-89
2023/10/11 08:19:11;;;;;;;7.73;7.07;;;;;;;17.36;100.00;99874.97;4920389;29;20316;-89
2023/10/11 08:21:54;;;;;;;7.50;6.80;;;;;;;17.25;100.00;99870.56;4889852;29;20202;-88
2023/10/11 08:24:28;;;;;;;7.10;6.50;;;;;;;17.23;100.00;99876.22;4907236;29;20191;-88
2023/10/11 08:27:08;;;;;;;7.30;6.20;;;;;;;17.36;100.00;99866.84;4899828;29;20262;-88
2023/10/11 08:29:37;;;;;;;7.73;6.70;;;;;;;17.39;100.00;99866.34;4905937;29;20199;-88
2023/10/11 08:32:26;;;;;;;7.17;6.23;;;;;;;17.36;100.00;99866.84;4901192;29;20208;-88
2023/10/11 08:35:04;;;;;;;7.40;6.30;;;;;;;17.22;100.00;99866.47;4899358;29;20209;-88
2023/10/11 08:37:34;;;;;;;8.33;6.90;;;;;;;17.02;100.00;99858.16;4912519;29;20218;-89
2023/10/11 08:40:34;;;;;;;9.70;6.63;;;;;;;16.87;100.00;99856.13;4921571;29;20202;-86
2023/10/11 08:43:02;;;;;;;7.63;6.60;;;;;;;16.82;100.00;99847.13;4912088;29;20233;-88
2023/10/11 08:45:48;;;;;;;8.40;7.20;;;;;;;16.75;100.00;99846.53;4900853;29;20205;-88
2023/10/11 08:48:19;;;;;;;8.37;7.57;;;;;;;16.68;100.00;99835.88;4920164;29;20206;-89
2023/10/11 08:50:53;;;;;;;8.47;7.57;;;;;;;16.62;100.00;99835.00;4904225;29;20210;-88
2023/10/11 08:53:21;;;;;;;8.20;6.80;;;;;;;16.61;100.00;99846.09;4899350;29;20679;-89
2023/10/11 08:55:58;;;;;;;9.43;7.10;;;;;;;16.63;100.00;99850.19;4901410;29;20213;-88
2023/10/11 08:58:29;;;;;;;9.17;7.47;;;;;;;16.63;100.00;99846.66;4906863;29;20230;-88
2023/10/11 09:00:59;;;;;;;7.97;7.27;;;;;;;16.77;100.00;99849.78;4912663;29;20306;-88
2023/10/11 09:03:31;;;;;;;10.43;7.60;;;;;;;16.75;100.00;99841.91;4902736;29;20208;-89
2023/10/11 09:06:02;;;;;;;7.27;6.57;;;;;;;16.81;100.00;99838.19;4909295;29;20205;-89
2023/10/11 09:08:32;;;;;;;8.73;6.67;;;;;;;16.92;100.00;99842.66;4907694;29;20234;-89
2023/10/11 09:11:05;;;;;;;12.93;7.43;;;;;;;16.98;100.00;99841.59;4912104;29;20260;-88
2023/10/11 09:13:36;;;;;;;11.23;7.27;;;;;;;17.00;100.00;99836.75;4897986;29;20216;-89
2023/10/11 09:16:13;;;;;;;7.53;6.63;;;;;;;17.14;100.00;99831.75;4908401;29;20205;-89
2023/10/11 09:19:01;;;;;;;9.17;7.20;;;;;;;17.21;100.00;99842.38;4894367;29;20320;-89
2023/10/11 09:21:29;;;;;;;7.60;6.70;;;;;;;17.28;100.00;99834.84;4925465;29;20302;-89
2023/10/11 09:24:03;;;;;;;7.07;6.23;;;;;;;17.30;100.00;99830.00;4892583;29;20213;-88
2023/10/11 09:26:37;;;;;;;9.27;6.73;;;;;;;17.40;100.00;99827.38;4901655;29;20207;-88
2023/10/11 09:29:16;;;;;;;10.30;6.20;;;;;;;17.52;100.00;99825.28;4936786;28;20761;-88
2023/10/11 09:32:04;;;;;;;9.23;6.80;;;;;;;17.61;100.00;99823.75;4927139;28;20209;-87
2023/10/11 09:34:34;;;;;;;8.23;7.20;;;;;;;17.73;100.00;99828.97;4953157;28;20237;-88
2023/10/11 09:37:04;;;;;;;8.17;6.53;;;;;;;17.83;100.00;99820.91;4942114;28;20201;-88
2023/10/11 09:39:37;;;;;;;8.67;7.30;;;;;;;17.94;100.00;99817.16;4941351;28;20230;-88
2023/10/11 09:42:13;;;;;;;7.30;6.60;;;;;;;18.08;100.00;99823.75;4937833;28;20677;-88
2023/10/11 09:44:45;;;;;;;8.03;6.70;;;;;;;18.20;100.00;99813.50;4941380;28;20209;-89
2023/10/11 09:47:16;;;;;;;8.20;6.83;;;;;;;18.31;100.00;99819.78;4934490;28;20265;-88
2023/10/11 09:49:47;;;;;;;8.67;6.43;;;;;;;18.45;100.00;99823.63;4925835;28;20227;-89
2023/10/11 09:52:31;;;;;;;10.53;7.17;;;;;;;18.51;100.00;99825.28;4937517;28;20210;-88
2023/10/11 09:55:04;;;;;;;9.73;7.43;;;;;;;18.49;100.00;99820.13;4953950;28;20657;-88
2023/10/11 09:57:52;;;;;;;10.13;6.90;;;;;;;18.68;100.00;99812.34;4952611;28;20209;-89
2023/10/11 10:00:40;;;;;;;9.20;7.53;;;;;;;18.74;100.00;99822.13;4924117;28;20202;-88
2023/10/11 10:03:13;;;;;;;9.27;7.40;;;;;;;18.85;100.00;99826.47;4963335;28;20207;-88
2023/10/11 10:06:09;;;;;;;8.47;7.40;;;;;;;18.96;100.00;99818.34;4920038;28;20238;-88
2023/10/11 10:08:47;;;;;;;9.20;6.83;;;;;;;19.08;100.00;99818.91;4934499;28;20286;-88
2023/10/11 10:11:19;;;;;;;8.37;7.40;;;;;;;19.11;100.00;99819.19;4937086;28;20272;-88
2023/10/11 10:14:23;;;;;;;8.30;6.90;;;;;;;19.21;100.00;99819.19;4919681;28;20287;-88
2023/10/11 10:17:19;;;;;;;8.43;6.77;;;;;;;19.31;100.00;99816.50;4914976;29;20238;-88
2023/10/11 10:19:48;;;;;;;9.93;7.23;;;;;;;19.27;100.00;99806.44;4931767;29;20254;-88
2023/10/11 10:22:31;;;;;;;8.37;7.57;;;;;;;19.34;100.00;99809.69;4921908;28;20212;-88
2023/10/11 10:25:18;;;;;;;10.27;7.80;;;;;;;19.23;100.00;99808.03;4920328;29;20221;-88
2023/10/11 10:27:46;;;;;;;9.17;7.53;;;;;;;19.47;100.00;99808.34;4918054;29;20235;-88
2023/10/11 10:30:21;;;;;;;7.87;7.00;;;;;;;19.57;100.00;99808.31;4941868;29;20751;-87
2023/10/11 10:33:25;;;;;;;8.53;7.70;;;;;;;19.61;100.00;99799.34;4923980;29;20207;-87
2023/10/11 10:35:54;;;;;;;9.83;6.73;;;;;;;19.72;100.00;99797.44;4933273;29;20208;-88
2023/10/11 10:38:25;;;;;;;7.57;6.87;;;;;;;19.78;100.00;99793.63;4917867;29;20217;-87
2023/10/11 10:41:25;;;;;;;8.10;6.43;;;;;;;19.89;100.00;99791.66;4903769;29;20306;-87
2023/10/11 10:44:13;;;;;;;7.70;6.90;;;;;;;19.27;100.00;99793.63;4900821;29;20211;-88
2023/10/11 10:46:50;;;;;;;9.63;6.97;;;;;;;19.67;100.00;99800.16;4889943;29;20226;-88
2023/10/11 10:49:40;;;;;;;7.43;6.63;;;;;;;19.84;100.00;99786.25;4902860;29;20238;-88
2023/10/11 10:52:29;;;;;;;9.07;5.97;;;;;;;20.00;100.00;99790.56;4914487;29;20219;-88
2023/10/11 10:55:05;;;;;;;7.80;6.10;;;;;;;19.93;100.00;99782.69;4926454;29;20212;-88
2023/10/11 10:57:37;;;;;;;7.57;5.83;;;;;;;20.03;100.00;99784.56;4941457;29;20261;-88
2023/10/11 11:00:20;;;;;;;6.87;6.20;;;;;;;20.07;100.00;99777.47;4940695;29;20341;-87
2023/10/11 11:02:56;;;;;;;6.30;5.80;;;;;;;20.11;100.00;99764.97;4931470;29;20677;-88
2023/10/11 11:05:29;;;;;;;9.80;6.10;;;;;;;20.34;100.00;99761.63;4921884;29;20212;-87
2023/10/11 11:08:19;;;;;;;8.77;6.67;;;;;;;20.48;100.00;99759.09;4934167;29;20207;-87
2023/10/11 11:10:54;;;;;;;7.87;6.63;;;;;;;20.50;100.00;99763.13;4947026;29;20217;-87
2023/10/11 11:13:28;;;;;;;7.15;6.55;;;;;;;20.57;100.00;99755.50;4926820;29;20202;-87
2023/10/11 11:15:58;;;;;;;6.75;6.07;;;;;;;20.67;100.00;99754.59;4920912;29;20204;-87
2023/10/11 11:18:33;;;;;;;6.47;5.68;;;;;;;20.74;100.00;99740.66;4932764;29;20238;-87
2023/10/11 11:21:26;;;;;;;7.82;5.95;;;;;;;20.89;100.00;99740.56;4937429;29;20235;-87
2023/10/11 11:24:15;;;;;;;9.15;6.38;;;;;;;21.01;100.00;99736.34;4952571;29;20214;-87
2023/10/11 11:26:43;;;;;;;11.60;6.28;;;;;;;21.15;100.00;99735.72;4939419;28;20223;-87
2023/10/11 11:29:17;;;;;;;7.90;5.80;;;;;;;21.26;100.00;99731.81;4934428;28;20300;-86
2023/10/11 11:31:59;;;;;;;8.02;5.97;;;;;;;21.36;100.00;99731.72;4925173;28;20214;-87
2023/10/11 11:34:37;;;;;;;5.93;5.03;;;;;;;21.43;100.00;99722.09;4916989;28;20208;-87
2023/10/11 11:37:20;;;;;;;7.68;5.45;;;;;;;21.64;100.00;99716.44;4923580;28;20271;-88
2023/10/11 11:39:54;;;;;;;7.95;5.38;;;;;;;21.80;100.00;99710.50;4942298;28;20257;-87
2023/10/11 11:42:24;;;;;;;9.32;5.45;;;;;;;21.92;100.00;99707.38;4937472;29;20197;-87
2023/10/11 11:45:00;;;;;;;11.30;5.30;;;;;;;22.04;100.00;99705.06;4924865;28;20237;-87
2023/10/11 11:47:31;;;;;;;7.97;4.65;;;;;;;22.18;100.00;99699.69;4938347;29;20232;-87
2023/10/11 11:50:04;;;;;;;9.27;4.90;;;;;;;22.31;100.00;99699.75;4928242;28;20235;-87
2023/10/11 11:52:33;;;;;;;8.20;5.10;;;;;;;22.41;100.00;99698.81;4965770;28;20287;-87
2023/10/11 11:55:07;;;;;;;7.18;5.32;;;;;;;22.53;100.00;99692.91;4918819;28;20238;-87
2023/10/11 11:57:40;;;;;;;8.75;5.18;;;;;;;22.65;100.00;99693.25;4941519;28;20299;-87
2023/10/11 12:03:04;;;;;;;6.32;4.88;;;;;;;22.61;100.00;99687.59;4938115;28;20299;-87
2023/10/11 12:05:43;;;;;;;7.20;4.80;;;;;;;22.71;100.00;99692.09;4910900;28;20205;-86
2023/10/11 12:08:21;;;;;;;8.25;4.85;;;;;;;22.82;100.00;99688.06;4901082;29;20206;-87
2023/10/11 12:10:51;;;;;;;7.32;4.78;;;;;;;22.94;100.00;99693.09;4926289;28;20198;-87
2023/10/11 12:13:23;;;;;;;7.68;4.70;;;;;;;23.04;100.00;99692.91;4934438;29;20204;-87
2023/10/11 12:16:22;;;;;;;6.70;4.88;;;;;;;23.12;100.00;99686.75;4939411;28;20584;-86
2023/10/11 12:19:01;;;;;;;7.57;5.28;;;;;;;23.27;100.00;99673.63;4939252;29;20217;-87
2023/10/11 12:21:34;;;;;;;9.80;5.13;;;;;;;23.30;100.00;99671.38;4954643;28;20295;-87
2023/10/11 12:24:10;;;;;;;9.55;5.15;;;;;;;23.41;100.00;99676.38;4958271;28;20195;-86
2023/10/11 12:27:00;;;;;;;7.30;5.35;;;;;;;23.40;100.00;99669.28;4916866;28;20310;-85
2023/10/11 12:29:31;;;;;;;8.20;4.93;;;;;;;23.41;100.00;99665.44;4916682;29;20214;-86
2023/10/11 12:32:13;;;;;;;9.20;5.18;;;;;;;23.54;100.00;99659.19;4946490;28;20287;-86
2023/10/11 12:34:42;;;;;;;7.28;4.78;;;;;;;23.64;100.00;99661.72;4933805;28;20231;-86
2023/10/11 12:37:14;;;;;;;7.63;4.93;;;;;;;23.73;100.00;99658.25;4939412;28;20209;-87
2023/10/11 12:39:44;;;;;;;8.65;5.45;;;;;;;23.83;100.00;99660.78;4940242;28;20256;-87
2023/10/11 12:42:16;;;;;;;9.95;5.05;;;;;;;23.84;100.00;99657.75;4944154;28;20595;-86
2023/10/11 12:44:45;;;;;;;8.88;5.25;;;;;;;23.71;100.00;99655.81;4947668;28;20295;-86
2023/10/11 12:47:14;;;;;;;9.43;4.68;;;;;;;23.89;100.00;99648.63;4928389;28;20225;-86
2023/10/11 12:49:42;;;;;;;9.20;4.80;;;;;;;24.06;100.00;99640.59;4935239;28;20243;-86
2023/10/11 12:52:15;;;;;;;8.80;4.70;;;;;;;24.24;100.00;99641.56;4933631;28;20623;-86
2023/10/11 12:54:45;;;;;;;7.97;4.65;;;;;;;24.36;100.00;99639.06;4941960;28;20196;-86
2023/10/11 12:57:15;;;;;;;6.40;4.40;;;;;;;24.44;100.00;99641.09;4957348;28;20228;-87
2023/10/11 12:59:46;;;;;;;9.02;4.53;;;;;;;24.51;100.00;99635.97;4925480;29;20377;-86
2023/10/11 13:02:21;;;;;;;8.88;4.72;;;;;;;24.59;100.00;99643.44;4913799;28;20239;-86
2023/10/11 13:04:49;;;;;;;7.60;4.90;;;;;;;24.67;100.00;99637.25;4917334;28;20207;-86
2023/10/11 13:07:18;;;;;;;7.38;4.50;;;;;;;24.66;100.00;99641.09;4912439;29;20231;-85
2023/10/11 13:09:54;;;;;;;7.18;4.88;;;;;;;24.62;100.00;99637.34;4938781;28;20267;-86
2023/10/11 13:12:22;;;;;;;7.93;4.72;;;;;;;24.70;100.00;99642.09;4929606;28;20219;-86
2023/10/11 13:14:51;;;;;;;7.45;4.65;;;;;;;24.75;100.00;99639.22;4908224;29;20204;-86
2023/10/11 13:17:19;;;;;;;7.32;4.55;;;;;;;24.90;100.00;99635.31;4930284;29;20220;-86
2023/10/11 13:19:51;;;;;;;7.53;4.68;;;;;;;24.97;100.00;99633.72;4947854;28;20244;-86
2023/10/11 13:22:21;;;;;;;8.70;4.50;;;;;;;25.07;100.00;99629.91;4956610;28;20212;-86
2023/10/11 13:24:50;;;;;;;8.25;4.55;;;;;;;25.08;100.00;99619.75;4940574;28;20212;-85
2023/10/11 13:27:21;;;;;;;9.32;4.97;;;;;;;25.07;100.00;99623.63;4937188;28;20231;-87
2023/10/11 13:29:52;;;;;;;10.60;4.65;;;;;;;24.97;100.00;99620.03;4933064;28;20301;-86
2023/10/11 13:32:28;;;;;;;9.57;4.70;;;;;;;25.08;100.00;99606.06;4957628;28;20200;-87
2023/10/11 13:34:57;;;;;;;7.38;4.90;;;;;;;25.13;100.00;99604.00;4970954;28;20224;-86
2023/10/11 13:37:28;;;;;;;9.48;5.15;;;;;;;25.10;100.00;99604.63;4922606;28;20204;-86
2023/10/11 13:40:05;;;;;;;8.73;5.03;;;;;;;25.04;100.00;99605.88;4940280;28;20752;-86
2023/10/11 13:42:37;;;;;;;7.28;4.70;;;;;;;25.10;100.00;99601.88;4940702;28;20215;-86
2023/10/11 13:45:09;;;;;;;8.20;5.20;;;;;;;25.20;100.00;99601.59;4922418;28;20262;-86
2023/10/11 13:47:39;;;;;;;7.60;4.80;;;;;;;25.30;100.00;99593.06;4925442;28;20201;-86
2023/10/11 13:50:20;;;;;;;6.88;4.90;;;;;;;25.39;100.00;99593.91;4930342;28;20212;-86
2023/10/11 13:52:54;;;;;;;8.82;4.78;;;;;;;25.32;100.00;99595.50;4925157;28;20306;-87
2023/10/11 13:55:23;;;;;;;8.70;4.95;;;;;;;25.25;100.00;99592.41;4941605;28;20200;-86
2023/10/11 13:57:53;;;;;;;8.55;4.75;;;;;;;25.27;100.00;99590.16;4926222;28;20201;-86
2023/10/11 14:06:01;;;;;;;9.05;5.20;;;;;;;25.36;100.00;99569.06;4944812;28;20208;-87
2023/10/11 14:08:43;;;;;;;8.73;5.20;;;;;;;25.26;100.00;99572.09;4930308;28;20274;-87
2023/10/11 14:11:14;;;;;;;10.32;4.80;;;;;;;25.17;100.00;99572.06;4928458;28;20215;-86
2023/10/11 14:13:49;;;;;;;7.25;5.05;;;;;;;25.09;100.00;99567.38;4928789;28;20231;-87
2023/10/11 14:16:21;;;;;;;8.88;4.50;;;;;;;24.95;100.00;99561.19;4930572;28;20204;-86
2023/10/11 14:18:53;;;;;;;7.43;4.38;;;;;;;24.83;100.00;99567.22;4969320;28;20212;-86
2023/10/11 14:21:23;;;;;;;10.18;4.88;;;;;;;24.76;100.00;99564.13;4948876;28;20252;-86
2023/10/11 14:23:58;;;;;;;8.10;4.78;;;;;;;24.63;100.00;99559.56;4941647;28;20209;-86
2023/10/11 14:26:33;;;;;;;7.65;4.90;;;;;;;24.61;100.00;99556.31;4957339;28;20669;-86
2023/10/11 14:29:07;;;;;;;8.88;4.72;;;;;;;24.52;100.00;99552.72;4971624;28;20275;-86
2023/10/11 14:31:35;;;;;;;24.00;6.93;;;;;;;24.38;100.00;99551.97;4923756;28;20235;-86
2023/10/11 14:34:05;;;;;;;17.35;6.10;;;;;;;24.21;100.00;99554.59;4923162;29;20208;-87
2023/10/11 14:36:35;;;;;;;26.70;6.75;;;;;;;24.05;100.00;99551.38;4937025;28;20204;-86
2023/10/11 14:39:08;;;;;;;14.27;5.65;;;;;;;23.91;100.00;99551.44;4940291;28;20886;-86
2023/10/11 14:41:37;;;;;;;8.93;5.28;;;;;;;23.75;100.00;99547.41;4941072;28;20629;-87
2023/10/11 14:44:08;;;;;;;9.88;5.05;;;;;;;23.56;100.00;99538.56;4944603;29;20571;-86
2023/10/11 14:46:39;;;;;;;6.85;4.93;;;;;;;23.39;100.00;99544.63;4938133;28;20208;-86
2023/10/11 14:49:11;;;;;;;7.50;5.20;;;;;;;23.18;100.00;99548.91;4952651;28;20235;-86
2023/10/11 14:51:43;;;;;;;10.10;5.30;;;;;;;23.06;100.00;99534.94;4936357;29;20212;-86
2023/10/11 14:54:12;;;;;;;10.20;5.07;;;;;;;23.00;100.00;99530.69;4959655;28;20214;-85
2023/10/11 14:56:42;;;;;;;7.47;5.25;;;;;;;22.98;100.00;99535.66;4944210;28;20259;-86
2023/10/11 14:59:35;;;;;;;9.20;5.15;;;;;;;22.94;100.00;99524.53;4971688;28;20204;-86
2023/10/11 15:02:06;;;;;;;7.25;4.95;;;;;;;22.93;100.00;99522.91;4953213;28;20204;-86
2023/10/11 15:04:35;;;;;;;7.15;5.05;;;;;;;22.90;100.00;99525.44;4939296;28;20208;-86
2023/10/11 15:07:06;;;;;;;9.90;5.70;;;;;;;22.85;100.00;99523.59;4927671;28;20319;-86
2023/10/11 15:09:39;;;;;;;6.60;4.97;;;;;;;22.81;100.00;99525.34;4944445;28;20319;-86
2023/10/11 15:12:06;;;;;;;9.35;4.75;;;;;;;22.82;100.00;99519.53;4951692;28;20216;-86
2023/10/11 15:14:39;;;;;;;9.90;4.93;;;;;;;22.92;100.00;99515.81;4927911;28;20208;-87
2023/10/11 15:17:15;;;;;;;10.45;5.05;;;;;;;22.98;100.00;99520.06;4944729;28;20253;-86
2023/10/11 15:19:48;;;;;;;8.02;4.65;;;;;;;22.92;100.00;99510.34;4927297;28;20231;-87
2023/10/11 15:22:16;;;;;;;9.13;4.00;;;;;;;22.97;100.00;99514.91;4943401;28;20272;-86
2023/10/11 15:24:45;;;;;;;9.98;4.47;;;;;;;22.88;100.00;99523.00;4941560;28;20305;-87
2023/10/11 15:27:14;;;;;;;9.00;4.80;;;;;;;22.73;100.00;99515.09;4934705;29;20307;-86
2023/10/11 15:29:51;;;;;;;8.52;4.50;;;;;;;22.63;100.00;99512.53;4898329;29;20202;-86
2023/10/11 15:32:23;;;;;;;9.18;4.40;;;;;;;22.54;100.00;99519.78;4898393;29;20290;-86
2023/10/11 15:34:52;;;;;;;8.80;4.50;;;;;;;22.46;100.00;99518.56;4916299;29;20288;-86
2023/10/11 15:37:22;;;;;;;6.88;4.50;;;;;;;22.30;100.00;99520.72;4921279;29;20204;-87
2023/10/11 15:39:51;;;;;;;8.27;4.22;;;;;;;22.15;100.00;99525.66;4897220;29;20258;-86
2023/10/11 15:42:18;;;;;;;19.15;5.25;;;;;;;21.95;100.00;99524.88;4921196;29;20198;-86
2023/10/11 15:44:51;;;;;;;11.52;5.45;;;;;;;21.78;100.00;99523.75;4890918;29;20247;-87
2023/10/11 15:47:24;;;;;;;10.75;5.03;;;;;;;21.58;100.00;99526.75;4905285;29;20297;-87
2023/10/11 15:49:58;;;;;;;10.63;4.82;;;;;;;21.36;100.00;99535.50;4921337;29;20214;-86
2023/10/11 15:52:29;;;;;;;12.80;5.53;;;;;;;21.11;100.00;99533.88;4906262;29;20209;-86
2023/10/11 15:54:59;;;;;;;19.63;6.15;;;;;;;20.86;100.00;99531.44;4889949;29;20697;-86
2023/10/11 15:57:28;;;;;;;13.75;6.18;;;;;;;20.66;100.00;99527.03;4893475;29;20223;-87
2023/10/11 15:59:59;;;;;;;12.75;5.53;;;;;;;20.50;100.00;99534.53;4905389;29;20234;-87
2023/10/11 16:02:29;;;;;;;13.95;5.43;;;;;;;20.31;100.00;99533.63;4894286;29;20682;-87
2023/10/11 16:04:58;;;;;;;13.65;5.75;;;;;;;20.10;100.00;99534.88;4918349;29;20295;-87
2023/10/11 16:07:26;;;;;;;9.65;5.60;;;;;;;19.93;100.00;99545.31;4920838;29;20218;-87
2023/10/11 16:09:56;;;;;;;10.07;5.45;;;;;;;19.74;100.00;99545.97;4920192;29;20221;-86
2023/10/11 16:12:24;;;;;;;9.40;5.50;;;;;;;19.59;100.00;99550.72;4905633;29;20265;-87
2023/10/11 16:14:52;;;;;;;8.43;4.95;;;;;;;19.41;100.00;99546.66;4923285;29;20207;-87
2023/10/11 16:17:23;;;;;;;6.80;4.88;;;;;;;19.24;100.00;99554.38;4904360;29;20753;-87
2023/10/11 16:20:05;;;;;;;8.70;5.32;;;;;;;19.08;100.00;99553.63;4917055;29;20229;-87
2023/10/11 16:22:38;;;;;;;7.88;5.32;;;;;;;18.88;100.00;99556.41;4905043;29;20219;-87
2023/10/11 16:25:08;;;;;;;7.90;5.37;;;;;;;18.73;100.00;99546.38;4924076;29;20257;-87
2023/10/11 16:27:43;;;;;;;8.53;5.50;;;;;;;18.58;100.00;99564.56;4901935;29;20780;-88
2023/10/11 16:30:14;;;;;;;6.43;5.07;;;;;;;18.44;100.00;99559.69;4929073;29;20300;-88
2023/10/11 16:32:44;;;;;;;8.23;4.90;;;;;;;18.30;100.00;99564.03;4914796;29;20193;-88
2023/10/11 16:35:19;;;;;;;7.37;4.97;;;;;;;18.15;100.00;99565.94;4927994;29;20676;-88
2023/10/11 16:37:47;;;;;;;6.33;5.20;;;;;;;18.03;100.00;99575.13;4917992;29;20217;-87
2023/10/11 16:40:18;;;;;;;9.80;5.43;;;;;;;17.92;100.00;99578.91;4928639;29;20760;-88
2023/10/11 16:42:46;;;;;;;10.13;5.50;;;;;;;17.76;100.00;99581.88;4911188;29;20219;-88
2023/10/11 16:45:19;;;;;;;8.50;5.77;;;;;;;17.63;100.00;99583.19;4892462;29;20208;-88
2023/10/11 16:47:50;;;;;;;6.40;5.10;;;;;;;17.49;100.00;99582.03;4903009;29;20299;-88
2023/10/11 16:50:39;;;;;;;8.83;5.37;;;;;;;17.38;100.00;99589.28;4895843;29;20273;-88
2023/10/11 16:53:08;;;;;;;9.60;5.47;;;;;;;17.27;100.00;99589.50;4901334;29;20296;-88
2023/10/11 16:55:37;;;;;;;7.80;5.20;;;;;;;17.15;100.00;99584.31;4920201;29;20204;-88
2023/10/11 16:58:07;;;;;;;8.47;5.33;;;;;;;17.07;100.00;99584.81;4920078;29;20216;-88
2023/10/11 17:00:35;;;;;;;7.57;5.57;;;;;;;16.98;100.00;99583.69;4920004;29;20232;-88
2023/10/11 17:03:13;;;;;;;8.20;5.57;;;;;;;16.89;100.00;99596.09;4922444;29;20204;-88
2023/10/11 17:05:42;;;;;;;10.77;5.97;;;;;;;16.81;100.00;99589.25;4904854;29;20199;-88
2023/10/11 17:08:12;;;;;;;8.93;5.50;;;;;;;16.75;100.00;99595.72;4935467;29;20542;-90
2023/10/11 17:10:43;;;;;;;6.40;5.73;;;;;;;16.65;100.00;99595.66;4909459;29;20205;-89
2023/10/11 17:13:16;;;;;;;9.03;7.77;;;;;;;16.55;100.00;99590.16;4928312;29;20222;-90
2023/10/11 17:15:46;;;;;;;13.00;8.17;;;;;;;16.47;100.00;99598.75;4929878;29;20259;-91
2023/10/11 17:18:16;;;;;;;10.20;7.50;;;;;;;16.39;100.00;99600.00;4913746;29;20291;-90
2023/10/11 17:20:45;;;;;;;8.57;7.47;;;;;;;16.34;100.00;99593.75;4929200;29;20298;-91
2023/10/11 17:23:14;;;;;;;11.60;8.50;;;;;;;16.30;100.00;99588.88;4915001;29;20262;-90
2023/10/11 17:25:46;;;;;;;12.30;8.03;;;;;;;16.25;100.00;99588.81;4905553;29;20208;-89
2023/10/11 17:28:37;;;;;;;12.50;7.87;;;;;;;16.18;100.00;99587.41;4920892;29;20244;-90
2023/10/11 17:31:08;;;;;;;9.37;7.10;;;;;;;16.14;100.00;99595.19;4918981;29;20225;-90
2023/10/11 17:33:35;;;;;;;9.17;6.77;;;;;;;16.11;100.00;99582.19;4874426;29;20206;-90
2023/10/11 17:36:08;;;;;;;9.73;6.17;;;;;;;16.06;100.00;99584.03;4904253;29;20278;-90
2023/10/11 17:38:40;;;;;;;9.53;6.17;;;;;;;16.01;100.00;99584.81;4886129;29;20215;-91
2023/10/11 17:41:13;;;;;;;11.23;6.00;;;;;;;15.98;100.00;99590.72;4899885;29;20254;-91
2023/10/11 17:43:48;;;;;;;7.30;5.63;;;;;;;15.93;100.00;99597.97;4889097;29;20206;-91
2023/10/11 17:46:15;;;;;;;7.80;5.80;;;;;;;15.91;100.00;99597.44;4917667;29;20261;-90
2023/10/11 17:48:46;;;;;;;10.57;5.73;;;;;;;15.86;100.00;99593.56;4894565;29;20230;-91
2023/10/11 17:51:16;;;;;;;11.60;6.27;;;;;;;15.81;100.00;99596.25;4907608;29;20210;-91
2023/10/11 17:53:46;;;;;;;9.90;6.53;;;;;;;15.75;100.00;99591.03;4897316;29;20205;-90
2023/10/11 17:56:16;;;;;;;6.83;6.13;;;;;;;15.66;100.00;99587.97;4903686;29;20206;-91
2023/10/11 17:58:48;;;;;;;10.70;5.93;;;;;;;15.60;100.00;99594.38;4916398;29;20281;-90
2023/10/11 18:01:25;;;;;;;9.30;6.07;;;;;;;15.55;100.00;99599.72;4888773;29;20235;-90
2023/10/11 18:03:54;;;;;;;8.50;5.90;;;;;;;15.48;100.00;99599.09;4886206;29;20228;-91
2023/10/11 18:06:25;;;;;;;7.77;6.03;;;;;;;15.37;100.00;99600.00;4891648;29;20210;-90
2023/10/11 18:08:53;;;;;;;13.50;6.03;;;;;;;15.29;100.00;99603.16;4931039;29;20789;-91
2023/10/11 18:11:25;;;;;;;10.17;6.50;;;;;;;15.24;100.00;99601.22;4897355;29;20671;-90
2023/10/11 18:13:58;;;;;;;7.77;5.90;;;;;;;15.19;100.00;99606.53;4903012;29;20735;-90
2023/10/11 18:16:29;;;;;;;7.67;5.87;;;;;;;15.15;100.00;99604.59;4916405;29;20202;-90
2023/10/11 18:19:01;;;;;;;8.70;6.00;;;;;;;15.12;100.00;99610.47;4905731;29;20207;-90
2023/10/11 18:21:32;;;;;;;6.93;5.40;;;;;;;15.05;100.00;99607.16;4892164;29;20230;-90
2023/10/11 18:24:03;;;;;;;7.33;6.53;;;;;;;15.05;100.00;99607.97;4893180;29;20258;-91
2023/10/11 18:26:34;;;;;;;9.00;6.50;;;;;;;15.04;100.00;99608.22;4895106;29;20214;-88
2023/10/11 18:29:09;;;;;;;8.10;6.53;;;;;;;15.01;100.00;99608.72;4893717;29;20326;-91
2023/10/11 18:31:41;;;;;;;8.13;6.33;;;;;;;14.98;100.00;99608.13;4922474;29;20252;-90
2023/10/11 18:34:10;;;;;;;10.83;6.50;;;;;;;14.92;100.00;99603.75;4923839;29;20234;-90
2023/10/11 18:36:41;;;;;;;10.33;6.50;;;;;;;14.87;100.00;99598.28;4891272;29;20222;-91